createdAt,value
2023-10-10T00:02:22.535Z,17.70
2023-10-10T00:04:51.127Z,17.70
2023-10-10T00:07:19.977Z,17.70
2023-10-10T00:09:47.839Z,17.70
2023-10-10T00:12:19.313Z,17.70
2023-10-10T00:14:51.972Z,17.70
2023-10-10T00:17:21.866Z,17.70
2023-10-10T00:19:59.571Z,17.70
2023-10-10T00:22:35.719Z,17.70
2023-10-10T00:25:13.116Z,17.70
2023-10-10T00:27:48.160Z,17.70
2023-10-10T00:30:15.803Z,17.70
2023-10-10T00:32:46.647Z,17.70
2023-10-10T00:35:14.032Z,17.70
2023-10-10T00:37:41.984Z,17.60
2023-10-10T00:40:11.311Z,17.60
2023-10-10T00:42:42.472Z,17.60
2023-10-10T00:45:13.572Z,17.60
2023-10-10T00:47:44.640Z,17.60
2023-10-10T00:50:20.908Z,17.60
2023-10-10T00:52:54.789Z,17.60
2023-10-10T00:55:26.343Z,17.60
2023-10-10T00:57:57.033Z,17.60
2023-10-10T01:00:31.065Z,17.60
2023-10-10T01:03:08.580Z,17.60
2023-10-10T01:05:42.298Z,17.60
2023-10-10T01:08:09.768Z,17.60
2023-10-10T01:10:44.667Z,17.50
2023-10-10T01:13:12.137Z,17.50
2023-10-10T01:15:39.913Z,17.50
2023-10-10T01:18:14.987Z,17.50
2023-10-10T01:20:46.813Z,17.50
2023-10-10T01:23:19.788Z,17.40
2023-10-10T01:25:48.651Z,17.40
2023-10-10T01:28:22.566Z,17.40
2023-10-10T01:30:56.206Z,17.40
2023-10-10T01:33:46.517Z,17.30
2023-10-10T01:36:14.747Z,17.30
2023-10-10T01:38:58.074Z,17.20
2023-10-10T01:41:49.525Z,17.30
2023-10-10T01:44:19.753Z,17.20
2023-10-10T01:46:47.666Z,17.20
2023-10-10T01:49:16.059Z,17.20
2023-10-10T01:51:44.599Z,17.20
2023-10-10T01:54:16.997Z,17.10
2023-10-10T01:56:44.424Z,17.20
2023-10-10T01:59:18.527Z,17.10
2023-10-10T02:01:48.371Z,17.10
2023-10-10T02:04:15.927Z,17.10
2023-10-10T02:06:46.717Z,17.10
2023-10-10T02:09:20.480Z,17.00
2023-10-10T02:11:56.662Z,17.10
2023-10-10T02:14:27.119Z,17.00
2023-10-10T02:16:56.281Z,17.00
2023-10-10T02:19:40.073Z,17.00
2023-10-10T02:22:20.459Z,17.00
2023-10-10T02:24:50.900Z,17.00
2023-10-10T02:27:23.477Z,17.00
2023-10-10T02:29:51.136Z,17.00
2023-10-10T02:32:21.980Z,16.90
2023-10-10T02:35:15.162Z,17.00
2023-10-10T02:37:43.170Z,16.90
2023-10-10T02:40:16.807Z,16.90
2023-10-10T02:42:52.170Z,16.90
2023-10-10T02:45:29.261Z,16.90
2023-10-10T02:47:56.728Z,16.90
2023-10-10T02:50:42.397Z,16.90
2023-10-10T02:53:10.176Z,16.90
2023-10-10T02:55:42.448Z,16.80
2023-10-10T02:58:21.822Z,16.80
2023-10-10T03:00:53.889Z,16.80
2023-10-10T03:03:21.342Z,16.80
2023-10-10T03:05:51.989Z,16.70
2023-10-10T03:08:36.412Z,16.80
2023-10-10T03:11:15.929Z,16.70
2023-10-10T03:13:49.480Z,16.70
2023-10-10T03:16:23.544Z,16.70
2023-10-10T03:19:02.887Z,16.70
2023-10-10T03:21:52.355Z,16.70
2023-10-10T03:24:26.690Z,16.70
2023-10-10T03:27:02.143Z,16.70
2023-10-10T03:29:38.896Z,16.70
2023-10-10T03:32:22.835Z,16.60
2023-10-10T03:35:07.055Z,16.70
2023-10-10T03:37:44.402Z,16.60
2023-10-10T03:40:31.046Z,16.60
2023-10-10T03:43:17.157Z,16.50
2023-10-10T03:46:03.092Z,16.50
2023-10-10T03:48:48.796Z,16.50
2023-10-10T03:51:34.692Z,16.50
2023-10-10T03:54:20.460Z,16.50
2023-10-10T03:57:06.580Z,16.50
2023-10-10T03:59:52.535Z,16.50
2023-10-10T04:02:38.657Z,16.50
2023-10-10T04:05:27.654Z,16.50
2023-10-10T04:08:14.178Z,16.50
2023-10-10T04:11:06.565Z,16.50
2023-10-10T04:13:52.381Z,16.50
2023-10-10T04:16:38.345Z,16.40
2023-10-10T04:19:24.227Z,16.40
2023-10-10T04:22:10.269Z,16.40
2023-10-10T04:24:57.004Z,16.40
2023-10-10T04:27:44.378Z,16.30
2023-10-10T04:30:30.364Z,16.30
2023-10-10T04:33:16.547Z,16.30
2023-10-10T04:36:05.618Z,16.30
2023-10-10T04:38:51.279Z,16.30
2023-10-10T04:41:37.446Z,16.20
2023-10-10T04:44:23.938Z,16.30
2023-10-10T04:47:09.812Z,16.30
2023-10-10T04:49:55.609Z,16.20
2023-10-10T04:52:41.314Z,16.30
2023-10-10T04:55:27.423Z,16.30
2023-10-10T04:58:13.568Z,16.20
2023-10-10T05:00:59.679Z,16.20
2023-10-10T05:03:45.775Z,16.30
2023-10-10T05:06:32.985Z,16.30
2023-10-10T05:09:20.282Z,16.30
2023-10-10T05:12:06.278Z,16.30
2023-10-10T05:14:52.278Z,16.30
2023-10-10T05:17:38.455Z,16.30
2023-10-10T05:20:24.996Z,16.30
2023-10-10T05:23:10.987Z,16.40
2023-10-10T05:25:38.841Z,16.30
2023-10-10T05:28:06.463Z,16.40
2023-10-10T05:30:45.251Z,16.30
2023-10-10T05:33:20.825Z,16.40
2023-10-10T05:35:48.911Z,16.40
2023-10-10T05:38:18.005Z,16.30
2023-10-10T05:40:48.374Z,16.30
2023-10-10T05:43:17.082Z,16.30
2023-10-10T05:45:45.238Z,16.30
2023-10-10T05:48:13.685Z,16.30
2023-10-10T05:50:44.042Z,16.30
2023-10-10T05:53:11.650Z,16.30
2023-10-10T05:55:39.700Z,16.30
2023-10-10T05:58:07.143Z,16.20
2023-10-10T06:00:37.955Z,16.20
2023-10-10T06:03:07.084Z,16.20
2023-10-10T06:05:35.200Z,16.20
2023-10-10T06:08:03.525Z,16.20
2023-10-10T06:10:34.384Z,16.10
2023-10-10T06:13:05.323Z,16.10
2023-10-10T06:15:34.915Z,16.10
2023-10-10T06:18:10.349Z,16.00
2023-10-10T06:21:02.672Z,16.00
2023-10-10T06:23:34.308Z,16.00
2023-10-10T06:26:07.365Z,16.00
2023-10-10T06:28:43.669Z,15.90
2023-10-10T06:31:21.603Z,15.80
2023-10-10T06:33:53.772Z,15.90
2023-10-10T06:36:24.851Z,15.90
2023-10-10T06:39:06.144Z,15.90
2023-10-10T06:41:44.502Z,15.80
2023-10-10T06:44:15.541Z,15.80
2023-10-10T06:46:50.603Z,15.90
2023-10-10T06:49:22.137Z,15.80
2023-10-10T06:51:50.884Z,15.80
2023-10-10T06:54:21.387Z,15.90
2023-10-10T06:57:01.118Z,15.90
2023-10-10T06:59:29.640Z,15.90
2023-10-10T07:02:01.398Z,15.90
2023-10-10T07:04:29.561Z,16.00
2023-10-10T07:07:02.037Z,16.00
2023-10-10T07:09:30.819Z,16.00
2023-10-10T07:12:10.858Z,16.10
2023-10-10T07:14:44.808Z,16.10
2023-10-10T07:17:13.926Z,16.10
2023-10-10T07:20:01.088Z,16.20
2023-10-10T07:22:36.293Z,16.20
2023-10-10T07:25:08.602Z,16.20
2023-10-10T07:27:41.349Z,16.20
2023-10-10T07:30:19.710Z,16.30
2023-10-10T07:32:51.839Z,16.30
2023-10-10T07:35:29.072Z,16.30
2023-10-10T07:38:00.287Z,16.40
2023-10-10T07:40:39.369Z,16.40
2023-10-10T07:43:08.614Z,16.40
2023-10-10T07:45:44.412Z,16.50
2023-10-10T07:48:12.364Z,16.50
2023-10-10T07:50:48.755Z,16.60
2023-10-10T07:53:18.549Z,16.70
2023-10-10T07:56:04.095Z,16.70
2023-10-10T07:58:53.654Z,16.80
2023-10-10T08:01:21.898Z,16.80
2023-10-10T08:03:49.616Z,16.90
2023-10-10T08:06:19.939Z,17.00
2023-10-10T08:08:50.416Z,17.00
2023-10-10T08:11:28.481Z,17.10
2023-10-10T08:13:56.689Z,17.10
2023-10-10T08:16:30.743Z,17.20
2023-10-10T08:19:05.826Z,17.30
2023-10-10T08:21:39.245Z,17.30
2023-10-10T08:24:08.667Z,17.40
2023-10-10T08:26:42.806Z,17.40
2023-10-10T08:29:11.492Z,17.50
2023-10-10T08:31:44.023Z,17.50
2023-10-10T08:34:11.696Z,17.80
2023-10-10T08:36:41.436Z,17.70
2023-10-10T08:39:17.652Z,17.80
2023-10-10T08:41:46.288Z,17.80
2023-10-10T08:44:20.537Z,17.90
2023-10-10T08:46:49.719Z,18.00
2023-10-10T08:49:17.457Z,18.00
2023-10-10T08:51:46.384Z,18.10
2023-10-10T08:54:17.311Z,18.10
2023-10-10T08:57:02.432Z,18.20
2023-10-10T08:59:33.959Z,18.30
2023-10-10T09:02:17.357Z,18.30
2023-10-10T09:04:45.747Z,18.40
2023-10-10T09:07:21.617Z,18.40
2023-10-10T09:10:06.066Z,18.50
2023-10-10T09:12:56.257Z,18.60
2023-10-10T09:15:28.639Z,18.60
2023-10-10T09:18:23.302Z,18.70
2023-10-10T09:20:51.971Z,18.80
2023-10-10T09:23:27.435Z,18.80
2023-10-10T09:26:20.293Z,18.90
2023-10-10T09:28:59.834Z,18.90
2023-10-10T09:31:28.108Z,19.00
2023-10-10T09:33:56.020Z,19.10
2023-10-10T09:36:29.692Z,19.20
2023-10-10T09:39:11.045Z,19.20
2023-10-10T09:41:58.690Z,19.30
2023-10-10T09:44:31.540Z,19.40
2023-10-10T09:47:09.939Z,19.50
2023-10-10T09:49:45.362Z,19.50
2023-10-10T09:52:33.002Z,19.60
2023-10-10T09:55:27.096Z,19.60
2023-10-10T09:58:01.644Z,19.70
2023-10-10T10:00:39.892Z,19.80
2023-10-10T10:03:30.330Z,19.90
2023-10-10T10:06:36.341Z,20.00
2023-10-10T10:09:10.748Z,20.10
2023-10-10T10:12:12.597Z,20.20
2023-10-10T10:15:01.562Z,20.30
2023-10-10T10:17:55.482Z,20.30
2023-10-10T10:20:44.815Z,20.50
2023-10-10T10:23:27.591Z,20.60
2023-10-10T10:26:05.549Z,20.70
2023-10-10T10:28:36.591Z,20.80
2023-10-10T10:31:32.241Z,20.90
2023-10-10T10:34:08.919Z,21.00
2023-10-10T10:36:51.949Z,21.20
2023-10-10T10:39:25.038Z,21.20
2023-10-10T10:42:00.795Z,21.40
2023-10-10T10:44:46.581Z,21.40
2023-10-10T10:47:39.391Z,21.50
2023-10-10T10:50:18.725Z,21.60
2023-10-10T10:52:57.811Z,21.70
2023-10-10T10:55:29.866Z,21.70
2023-10-10T10:58:07.402Z,21.80
2023-10-10T11:01:03.171Z,21.90
2023-10-10T11:03:38.521Z,22.00
2023-10-10T11:06:07.766Z,22.10
2023-10-10T11:11:27.000Z,22.60
2023-10-10T11:14:14.719Z,22.90
2023-10-10T11:17:03.095Z,23.30
2023-10-10T11:19:31.437Z,23.40
2023-10-10T11:22:38.888Z,23.50
2023-10-10T11:25:07.244Z,23.70
2023-10-10T11:27:44.969Z,23.80
2023-10-10T11:30:13.828Z,23.90
2023-10-10T11:32:48.739Z,24.00
2023-10-10T11:35:24.241Z,24.10
2023-10-10T11:38:01.021Z,24.40
2023-10-10T11:40:32.840Z,24.80
2023-10-10T11:43:04.929Z,24.90
2023-10-10T11:45:41.784Z,25.10
2023-10-10T11:48:17.410Z,25.30
2023-10-10T11:50:49.120Z,25.50
2023-10-10T11:53:25.016Z,25.50
2023-10-10T11:55:56.569Z,25.70
2023-10-10T11:58:37.314Z,25.80
2023-10-10T12:01:09.442Z,26.00
2023-10-10T12:03:40.591Z,26.20
2023-10-10T12:06:15.385Z,26.20
2023-10-10T12:08:49.849Z,26.30
2023-10-10T12:11:21.498Z,26.50
2023-10-10T12:13:51.582Z,26.60
2023-10-10T12:16:25.009Z,26.80
2023-10-10T12:18:56.444Z,26.90
2023-10-10T12:21:26.904Z,27.00
2023-10-10T12:24:00.357Z,27.30
2023-10-10T12:26:29.018Z,27.30
2023-10-10T12:28:56.428Z,27.40
2023-10-10T12:31:24.393Z,27.20
2023-10-10T12:33:54.496Z,27.20
2023-10-10T12:36:30.930Z,27.40
2023-10-10T12:39:00.647Z,27.50
2023-10-10T12:41:29.237Z,27.60
2023-10-10T12:43:56.704Z,27.80
2023-10-10T12:46:24.003Z,27.90
2023-10-10T12:48:53.204Z,28.00
2023-10-10T12:51:25.240Z,28.30
2023-10-10T12:54:07.008Z,28.30
2023-10-10T12:56:39.854Z,28.30
2023-10-10T12:59:25.637Z,28.30
2023-10-10T13:01:57.701Z,28.10
2023-10-10T13:04:31.084Z,28.00
2023-10-10T13:07:06.400Z,27.80
2023-10-10T13:09:34.661Z,27.70
2023-10-10T13:12:05.327Z,27.50
2023-10-10T13:14:36.033Z,27.60
2023-10-10T13:17:39.197Z,27.90
2023-10-10T13:20:07.149Z,27.70
2023-10-10T13:22:34.476Z,27.70
2023-10-10T13:25:01.785Z,27.60
2023-10-10T13:27:29.040Z,27.20
2023-10-10T13:29:56.508Z,27.10
2023-10-10T13:32:25.558Z,27.00
2023-10-10T13:34:53.576Z,26.70
2023-10-10T13:37:20.976Z,26.70
2023-10-10T13:39:49.713Z,26.70
2023-10-10T13:42:18.997Z,26.70
2023-10-10T13:44:49.719Z,26.60
2023-10-10T13:47:18.197Z,26.50
2023-10-10T13:49:46.180Z,26.40
2023-10-10T13:52:14.586Z,26.50
2023-10-10T13:54:42.064Z,26.60
2023-10-10T13:57:11.124Z,26.60
2023-10-10T13:59:38.872Z,26.70
2023-10-10T14:02:11.831Z,26.80
2023-10-10T14:04:48.598Z,26.50
2023-10-10T14:07:16.182Z,26.00
2023-10-10T14:10:02.478Z,25.80
2023-10-10T14:12:33.433Z,25.50
2023-10-10T14:15:02.738Z,25.30
2023-10-10T14:17:31.303Z,25.20
2023-10-10T14:20:01.917Z,25.20
2023-10-10T14:22:38.062Z,25.40
2023-10-10T14:25:18.286Z,25.50
2023-10-10T14:27:45.598Z,25.40
2023-10-10T14:30:24.519Z,25.40
2023-10-10T14:32:56.425Z,25.20
2023-10-10T14:35:25.092Z,25.20
2023-10-10T14:38:02.100Z,25.20
2023-10-10T14:40:30.101Z,25.40
2023-10-10T14:42:57.355Z,25.30
2023-10-10T14:45:29.805Z,25.10
2023-10-10T14:47:57.840Z,24.80
2023-10-10T14:50:25.816Z,24.60
2023-10-10T14:52:54.670Z,24.80
2023-10-10T14:55:25.324Z,24.80
2023-10-10T14:57:56.474Z,24.90
2023-10-10T15:00:29.417Z,25.00
2023-10-10T15:02:57.586Z,25.10
2023-10-10T15:05:26.491Z,25.10
2023-10-10T15:07:57.039Z,25.10
2023-10-10T15:10:28.241Z,25.20
2023-10-10T15:12:59.060Z,25.10
2023-10-10T15:15:26.424Z,24.90
2023-10-10T15:17:53.785Z,24.90
2023-10-10T15:20:21.370Z,24.90
2023-10-10T15:22:52.627Z,24.80
2023-10-10T15:25:20.500Z,24.60
2023-10-10T15:27:47.853Z,24.40
2023-10-10T15:30:16.355Z,24.50
2023-10-10T15:32:48.320Z,24.30
2023-10-10T15:35:18.359Z,24.10
2023-10-10T15:37:46.091Z,23.90
2023-10-10T15:40:21.752Z,23.70
2023-10-10T15:42:52.441Z,23.40
2023-10-10T15:45:23.195Z,23.20
2023-10-10T15:47:54.101Z,23.00
2023-10-10T15:50:24.758Z,22.90
2023-10-10T15:52:52.345Z,22.70
2023-10-10T15:55:24.592Z,22.60
2023-10-10T15:57:53.620Z,22.50
2023-10-10T16:00:34.881Z,22.40
2023-10-10T16:03:08.394Z,22.30
2023-10-10T16:05:43.094Z,22.20
2023-10-10T16:08:10.824Z,22.10
2023-10-10T16:10:41.574Z,22.10
2023-10-10T16:13:10.574Z,22.10
2023-10-10T16:15:38.510Z,22.20
2023-10-10T16:18:07.008Z,22.30
2023-10-10T16:20:37.396Z,22.30
2023-10-10T16:23:09.189Z,22.20
2023-10-10T16:25:38.356Z,22.10
2023-10-10T16:28:06.976Z,22.00
2023-10-10T16:30:40.247Z,21.80
2023-10-10T16:33:10.206Z,21.70
2023-10-10T16:35:47.402Z,21.50
2023-10-10T16:38:22.934Z,21.40
2023-10-10T16:40:53.533Z,21.20
2023-10-10T16:43:25.333Z,21.10
2023-10-10T16:45:52.662Z,20.90
2023-10-10T16:48:20.086Z,20.80
2023-10-10T16:50:47.469Z,20.70
2023-10-10T16:53:14.920Z,20.50
2023-10-10T16:55:42.799Z,20.40
2023-10-10T16:58:15.454Z,20.30
2023-10-10T17:00:48.481Z,20.20
2023-10-10T17:03:15.993Z,20.10
2023-10-10T17:05:43.507Z,20.00
2023-10-10T17:08:12.446Z,19.90
2023-10-10T17:10:42.297Z,19.80
2023-10-10T17:13:10.096Z,19.80
2023-10-10T17:15:39.815Z,19.70
2023-10-10T17:18:10.467Z,19.70
2023-10-10T17:20:39.725Z,19.60
2023-10-10T17:23:07.272Z,19.50
2023-10-10T17:25:38.548Z,19.40
2023-10-10T17:28:06.466Z,19.30
2023-10-10T17:30:33.778Z,19.20
2023-10-10T17:33:03.144Z,19.20
2023-10-10T17:35:31.804Z,19.10
2023-10-10T17:38:00.494Z,19.10
2023-10-10T17:40:29.384Z,19.00
2023-10-10T17:42:58.846Z,18.90
2023-10-10T17:45:26.248Z,18.90
2023-10-10T17:47:53.777Z,18.80
2023-10-10T17:50:23.195Z,18.90
2023-10-10T17:52:50.502Z,18.80
2023-10-10T17:55:17.792Z,18.70
2023-10-10T17:57:45.293Z,18.70
2023-10-10T18:00:14.966Z,18.60
2023-10-10T18:02:46.239Z,18.60
2023-10-10T18:05:15.861Z,18.60
2023-10-10T18:07:44.977Z,18.50
2023-10-10T18:10:14.061Z,18.50
2023-10-10T18:12:42.298Z,18.50
2023-10-10T18:15:12.397Z,18.40
2023-10-10T18:17:39.973Z,18.40
2023-10-10T18:20:15.857Z,18.40
2023-10-10T18:22:47.326Z,18.30
2023-10-10T18:25:15.101Z,18.30
2023-10-10T18:27:46.385Z,18.30
2023-10-10T18:30:15.438Z,18.30
2023-10-10T18:32:45.934Z,18.20
2023-10-10T18:35:14.974Z,18.20
2023-10-10T18:37:43.965Z,18.20
2023-10-10T18:40:12.709Z,18.20
2023-10-10T18:42:40.795Z,18.10
2023-10-10T18:45:13.727Z,18.10
2023-10-10T18:47:41.837Z,18.10
2023-10-10T18:50:09.877Z,18.10
2023-10-10T18:52:37.288Z,18.10
2023-10-10T18:55:07.508Z,18.10
2023-10-10T18:57:36.507Z,18.00
2023-10-10T19:00:09.601Z,17.90
2023-10-10T19:02:37.040Z,17.90
2023-10-10T19:05:06.322Z,17.90
2023-10-10T19:07:35.979Z,17.90
2023-10-10T19:10:04.193Z,17.80
2023-10-10T19:12:33.584Z,17.80
2023-10-10T19:15:02.823Z,17.70
2023-10-10T19:17:30.366Z,17.70
2023-10-10T19:19:58.556Z,17.70
2023-10-10T19:22:25.913Z,17.70
2023-10-10T19:24:53.654Z,17.70
2023-10-10T19:27:22.166Z,17.60
2023-10-10T19:29:51.210Z,17.60
2023-10-10T19:32:19.486Z,17.70
2023-10-10T19:34:47.333Z,17.60
2023-10-10T19:37:14.787Z,17.60
2023-10-10T19:39:42.316Z,17.60
2023-10-10T19:42:09.705Z,17.60
2023-10-10T19:44:37.063Z,17.60
2023-10-10T19:47:08.144Z,17.50
2023-10-10T19:49:35.922Z,17.50
2023-10-10T19:52:06.470Z,17.50
2023-10-10T19:54:37.196Z,17.50
2023-10-10T19:57:04.783Z,17.50
2023-10-10T19:59:32.291Z,17.40
2023-10-10T20:02:00.008Z,17.40
2023-10-10T20:04:29.408Z,17.40
2023-10-10T20:06:56.864Z,17.30
2023-10-10T20:09:24.286Z,17.30
2023-10-10T20:11:52.635Z,17.30
2023-10-10T20:14:20.051Z,17.30
2023-10-10T20:16:51.048Z,17.30
2023-10-10T20:19:19.631Z,17.20
2023-10-10T20:21:47.398Z,17.20
2023-10-10T20:24:14.734Z,17.20
2023-10-10T20:26:42.129Z,17.20
2023-10-10T20:29:10.736Z,17.10
2023-10-10T20:31:38.084Z,17.10
2023-10-10T20:34:06.344Z,17.00
2023-10-10T20:36:36.152Z,17.10
2023-10-10T20:39:07.532Z,17.00
2023-10-10T20:41:34.905Z,17.00
2023-10-10T20:44:03.189Z,17.00
2023-10-10T20:46:32.729Z,17.00
2023-10-10T20:49:01.594Z,16.90
2023-10-10T20:51:28.921Z,16.90
2023-10-10T20:53:56.667Z,16.90
2023-10-10T20:56:23.953Z,16.90
2023-10-10T20:58:51.913Z,16.90
2023-10-10T21:01:19.349Z,16.90
2023-10-10T21:03:47.020Z,16.90
2023-10-10T21:06:14.625Z,16.80
2023-10-10T21:08:43.184Z,16.80
2023-10-10T21:11:11.531Z,16.80
2023-10-10T21:13:38.990Z,16.80
2023-10-10T21:16:17.095Z,16.70
2023-10-10T21:18:46.782Z,16.70
2023-10-10T21:21:15.461Z,16.70
2023-10-10T21:23:43.777Z,16.60
2023-10-10T21:26:15.884Z,16.60
2023-10-10T21:28:44.159Z,16.60
2023-10-10T21:31:12.131Z,16.70
2023-10-10T21:33:42.511Z,16.60
2023-10-10T21:36:12.496Z,16.60
2023-10-10T21:38:40.088Z,16.60
2023-10-10T21:41:07.940Z,16.50
2023-10-10T21:43:35.308Z,16.50
2023-10-10T21:46:06.579Z,16.50
2023-10-10T21:48:34.019Z,16.50
2023-10-10T21:51:03.681Z,16.50
2023-10-10T21:53:32.800Z,16.40
2023-10-10T21:56:00.886Z,16.40
2023-10-10T21:58:28.350Z,16.40
2023-10-10T22:00:59.650Z,16.40
2023-10-10T22:03:27.363Z,16.40
2023-10-10T22:05:55.129Z,16.40
2023-10-10T22:08:26.584Z,16.40
2023-10-10T22:10:55.495Z,16.40
2023-10-10T22:13:23.630Z,16.30
2023-10-10T22:15:51.005Z,16.30
2023-10-10T22:18:18.515Z,16.30
2023-10-10T22:20:46.998Z,16.30
2023-10-10T22:23:14.484Z,16.30
2023-10-10T22:25:41.918Z,16.30
2023-10-10T22:28:10.952Z,16.30
2023-10-10T22:30:38.935Z,16.20
2023-10-10T22:33:12.171Z,16.30
2023-10-10T22:35:40.309Z,16.20
2023-10-10T22:38:08.080Z,16.20
2023-10-10T22:40:35.695Z,16.20
2023-10-10T22:43:05.016Z,16.20
2023-10-10T22:45:34.788Z,16.10
2023-10-10T22:48:04.558Z,16.10
2023-10-10T22:50:32.451Z,16.10
2023-10-10T22:53:04.641Z,16.10
2023-10-10T22:55:36.475Z,16.10
2023-10-10T22:58:08.697Z,16.10
2023-10-10T23:00:40.356Z,16.10
2023-10-10T23:03:13.690Z,16.00
2023-10-10T23:05:43.706Z,16.10
2023-10-10T23:08:14.356Z,16.10
2023-10-10T23:10:41.903Z,16.00
2023-10-10T23:13:09.487Z,16.00
2023-10-10T23:15:37.943Z,16.00
2023-10-10T23:18:11.388Z,16.00
2023-10-10T23:20:41.987Z,15.90
2023-10-10T23:23:11.217Z,16.00
2023-10-10T23:25:38.968Z,15.90
2023-10-10T23:28:09.412Z,15.90
2023-10-10T23:30:40.210Z,15.90
2023-10-10T23:33:13.149Z,15.90
2023-10-10T23:35:42.129Z,15.90
2023-10-10T23:38:10.783Z,15.90
2023-10-10T23:40:43.202Z,15.90
2023-10-10T23:43:20.015Z,15.80
2023-10-10T23:45:55.691Z,15.80
2023-10-10T23:48:31.065Z,15.80
2023-10-10T23:51:00.116Z,15.80
2023-10-10T23:53:27.863Z,15.80
2023-10-10T23:56:00.231Z,15.80
2023-10-10T23:58:30.200Z,15.80
